createdAt,value
2023-03-02T00:01:28.485Z,102593.31
2023-03-02T00:03:59.001Z,102604.03
2023-03-02T00:06:28.304Z,102594.69
2023-03-02T00:08:55.626Z,102597.88
2023-03-02T00:11:22.376Z,102595.94
2023-03-02T00:13:48.934Z,102598.41
2023-03-02T00:16:15.519Z,102589.50
2023-03-02T00:18:42.027Z,102588.44
2023-03-02T00:21:10.579Z,102579.50
2023-03-02T00:23:38.276Z,102583.63
2023-03-02T00:26:06.055Z,102578.94
2023-03-02T00:28:33.758Z,102582.38
2023-03-02T00:31:03.516Z,102572.50
2023-03-02T00:33:29.989Z,102584.06
2023-03-02T00:35:56.533Z,102580.66
2023-03-02T00:38:23.008Z,102587.25
2023-03-02T00:40:49.724Z,102582.78
2023-03-02T00:43:16.671Z,102584.81
2023-03-02T00:45:43.183Z,102580.88
2023-03-02T00:48:09.672Z,102574.09
2023-03-02T00:50:41.102Z,102573.97
2023-03-02T00:53:09.285Z,102575.66
2023-03-02T00:55:36.930Z,102580.47
2023-03-02T00:58:05.083Z,102581.94
2023-03-02T01:00:32.577Z,102590.00
2023-03-02T01:03:03.197Z,102584.06
2023-03-02T01:05:29.767Z,102585.34
2023-03-02T01:07:56.314Z,102585.34
2023-03-02T01:10:22.835Z,102589.50
2023-03-02T01:12:49.412Z,102582.88
2023-03-02T01:15:15.926Z,102579.38
2023-03-02T01:17:43.876Z,102578.88
2023-03-02T01:20:11.802Z,102581.31
2023-03-02T01:22:38.377Z,102582.38
2023-03-02T01:25:05.947Z,102570.78
2023-03-02T01:27:32.507Z,102560.91
2023-03-02T01:29:58.990Z,102568.31
2023-03-02T01:32:25.585Z,102566.28
2023-03-02T01:34:52.142Z,102560.06
2023-03-02T01:37:20.685Z,102557.06
2023-03-02T01:39:47.218Z,102554.06
2023-03-02T01:42:13.725Z,102550.44
2023-03-02T01:44:51.454Z,102552.38
2023-03-02T01:47:32.247Z,102557.69
2023-03-02T01:50:27.742Z,102551.28
2023-03-02T01:52:57.812Z,102540.34
2023-03-02T01:55:29.046Z,102545.63
2023-03-02T01:57:58.238Z,102548.09
2023-03-02T02:00:29.688Z,102553.19
2023-03-02T02:03:08.964Z,102554.88
2023-03-02T02:05:39.271Z,102553.19
2023-03-02T02:08:07.149Z,102551.25
2023-03-02T02:10:34.494Z,102544.25
2023-03-02T02:13:01.553Z,102544.13
2023-03-02T02:15:28.188Z,102541.03
2023-03-02T02:17:55.582Z,102535.41
2023-03-02T02:20:25.516Z,102541.31
2023-03-02T02:22:57.458Z,102533.69
2023-03-02T02:25:47.995Z,102536.13
2023-03-02T02:28:21.668Z,102525.94
2023-03-02T02:30:52.455Z,102532.66
2023-03-02T02:33:23.847Z,102534.88
2023-03-02T02:35:55.169Z,102528.81
2023-03-02T02:38:22.683Z,102526.63
2023-03-02T02:40:55.261Z,102527.00
2023-03-02T02:43:27.801Z,102526.91
2023-03-02T02:45:57.212Z,102518.19
2023-03-02T02:48:27.186Z,102523.38
2023-03-02T02:51:00.518Z,102519.38
2023-03-02T02:53:42.703Z,102517.94
2023-03-02T02:56:10.350Z,102511.53
2023-03-02T02:58:44.035Z,102516.22
2023-03-02T03:01:19.308Z,102519.63
2023-03-02T03:03:58.403Z,102507.31
2023-03-02T03:06:30.513Z,102511.56
2023-03-02T03:08:59.784Z,102508.19
2023-03-02T03:11:41.843Z,102500.50
2023-03-02T03:14:13.238Z,102513.78
2023-03-02T03:16:42.165Z,102509.22
2023-03-02T03:19:22.952Z,102507.53
2023-03-02T03:21:53.120Z,102504.03
2023-03-02T03:24:21.117Z,102506.56
2023-03-02T03:26:48.412Z,102507.19
2023-03-02T03:29:16.930Z,102509.63
2023-03-02T03:31:43.957Z,102507.31
2023-03-02T03:34:12.358Z,102500.50
2023-03-02T03:36:38.842Z,102502.41
2023-03-02T03:39:06.320Z,102498.41
2023-03-02T03:41:33.528Z,102500.00
2023-03-02T03:44:00.749Z,102506.72
2023-03-02T03:46:30.914Z,102501.06
2023-03-02T03:48:57.521Z,102502.75
2023-03-02T03:51:24.842Z,102504.56
2023-03-02T03:53:59.806Z,102497.69
2023-03-02T03:56:37.017Z,102510.34
2023-03-02T03:59:08.601Z,102506.72
2023-03-02T04:01:48.883Z,102503.59
2023-03-02T04:04:20.504Z,102506.50
2023-03-02T04:06:47.656Z,102505.22
2023-03-02T04:09:15.575Z,102513.84
2023-03-02T04:11:43.874Z,102511.47
2023-03-02T04:14:10.917Z,102507.22
2023-03-02T04:16:38.188Z,102509.75
2023-03-02T04:19:09.643Z,102506.72
2023-03-02T04:21:40.743Z,102499.72
2023-03-02T04:24:08.782Z,102503.53
2023-03-02T04:26:37.638Z,102505.28
2023-03-02T04:29:04.926Z,102506.78
2023-03-02T04:31:32.250Z,102501.47
2023-03-02T04:34:00.766Z,102503.06
2023-03-02T04:36:27.305Z,102497.97
2023-03-02T04:38:53.948Z,102516.34
2023-03-02T04:41:21.851Z,102513.59
2023-03-02T04:43:48.404Z,102512.09
2023-03-02T04:46:20.110Z,102505.09
2023-03-02T04:48:46.620Z,102508.09
2023-03-02T04:51:27.716Z,102513.00
2023-03-02T04:53:56.389Z,102511.81
2023-03-02T04:56:23.309Z,102504.47
2023-03-02T04:58:50.500Z,102518.06
2023-03-02T05:01:18.871Z,102514.69
2023-03-02T05:03:45.717Z,102509.69
2023-03-02T05:06:12.531Z,102504.59
2023-03-02T05:08:39.685Z,102509.59
2023-03-02T05:11:07.840Z,102506.00
2023-03-02T05:13:35.806Z,102504.59
2023-03-02T05:16:03.183Z,102508.09
2023-03-02T05:18:29.998Z,102502.59
2023-03-02T05:20:57.141Z,102507.16
2023-03-02T05:23:25.569Z,102505.75
2023-03-02T05:25:54.348Z,102501.13
2023-03-02T05:28:23.079Z,102503.03
2023-03-02T05:30:50.042Z,102507.25
2023-03-02T05:33:17.013Z,102494.13
2023-03-02T05:35:44.456Z,102503.22
2023-03-02T05:38:11.693Z,102504.06
2023-03-02T05:40:39.172Z,102498.78
2023-03-02T05:43:06.463Z,102508.63
2023-03-02T05:45:36.263Z,102505.47
2023-03-02T05:48:03.495Z,102510.97
2023-03-02T05:50:30.264Z,102499.41
2023-03-02T05:52:58.177Z,102503.03
2023-03-02T05:55:24.685Z,102503.56
2023-03-02T05:57:51.254Z,102501.75
2023-03-02T06:00:18.695Z,102510.53
2023-03-02T06:02:45.319Z,102512.47
2023-03-02T06:05:15.106Z,102517.03
2023-03-02T06:07:41.597Z,102517.97
2023-03-02T06:10:10.514Z,102513.69
2023-03-02T06:12:37.385Z,102512.34
2023-03-02T06:15:05.506Z,102519.44
2023-03-02T06:17:32.581Z,102518.72
2023-03-02T06:19:59.344Z,102518.59
2023-03-02T06:22:26.033Z,102518.50
2023-03-02T06:24:55.252Z,102519.13
2023-03-02T06:27:21.844Z,102527.19
2023-03-02T06:29:48.631Z,102524.44
2023-03-02T06:32:15.321Z,102528.88
2023-03-02T06:34:42.352Z,102522.41
2023-03-02T06:37:09.057Z,102528.66
2023-03-02T06:39:35.515Z,102528.47
2023-03-02T06:42:02.051Z,102531.88
2023-03-02T06:44:28.589Z,102540.34
2023-03-02T06:46:55.130Z,102534.09
2023-03-02T06:49:21.703Z,102536.53
2023-03-02T06:51:49.311Z,102545.22
2023-03-02T06:54:15.836Z,102541.00
2023-03-02T06:56:42.251Z,102539.19
2023-03-02T06:59:08.763Z,102536.41
2023-03-02T07:01:36.344Z,102543.31
2023-03-02T07:04:03.679Z,102543.13
2023-03-02T07:06:30.258Z,102547.25
2023-03-02T07:08:56.802Z,102546.81
2023-03-02T07:11:23.268Z,102540.66
2023-03-02T07:13:49.736Z,102546.94
2023-03-02T07:16:16.442Z,102545.00
2023-03-02T07:18:42.995Z,102542.69
2023-03-02T07:21:09.632Z,102542.00
2023-03-02T07:23:36.325Z,102552.22
2023-03-02T07:26:08.242Z,102537.66
2023-03-02T07:28:39.829Z,102547.81
2023-03-02T07:31:06.658Z,102538.34
2023-03-02T07:33:33.205Z,102544.91
2023-03-02T07:35:59.842Z,102541.69
2023-03-02T07:38:26.371Z,102530.13
2023-03-02T07:40:52.992Z,102537.00
2023-03-02T07:43:19.513Z,102528.38
2023-03-02T07:45:46.055Z,102524.13
2023-03-02T07:48:12.583Z,102522.03
2023-03-02T07:50:39.072Z,102517.41
2023-03-02T07:53:05.622Z,102522.09
2023-03-02T07:55:32.233Z,102527.00
2023-03-02T07:57:58.814Z,102528.81
2023-03-02T08:00:25.652Z,102519.63
2023-03-02T08:02:52.255Z,102524.00
2023-03-02T08:05:18.893Z,102528.66
2023-03-02T08:07:46.614Z,102516.47
2023-03-02T08:10:13.108Z,102526.22
2023-03-02T08:12:39.992Z,102520.03
2023-03-02T08:15:06.984Z,102514.97
2023-03-02T08:17:33.459Z,102521.69
2023-03-02T08:19:59.955Z,102528.88
2023-03-02T08:22:26.399Z,102522.59
2023-03-02T08:24:52.871Z,102512.81
2023-03-02T08:27:19.375Z,102519.47
2023-03-02T08:29:45.919Z,102519.41
2023-03-02T08:32:12.543Z,102513.75
2023-03-02T08:34:39.101Z,102517.84
2023-03-02T08:37:05.628Z,102519.47
2023-03-02T08:39:33.075Z,102517.44
2023-03-02T08:41:59.613Z,102519.69
2023-03-02T08:44:26.341Z,102517.06
2023-03-02T08:46:52.882Z,102518.44
2023-03-02T08:49:19.995Z,102522.59
2023-03-02T08:51:46.539Z,102527.81
2023-03-02T08:54:13.479Z,102526.88
2023-03-02T08:56:41.201Z,102529.75
2023-03-02T08:59:12.373Z,102528.94
2023-03-02T09:01:39.772Z,102522.16
2023-03-02T09:04:08.363Z,102512.13
2023-03-02T09:06:37.823Z,102523.03
2023-03-02T09:09:05.184Z,102514.94
2023-03-02T09:11:32.466Z,102517.28
2023-03-02T09:13:59.235Z,102517.06
2023-03-02T09:16:26.072Z,102518.84
2023-03-02T09:18:53.997Z,102515.81
2023-03-02T09:21:21.118Z,102517.44
2023-03-02T09:23:47.739Z,102511.75
2023-03-02T09:26:14.295Z,102508.44
2023-03-02T09:28:40.863Z,102513.41
2023-03-02T09:31:08.677Z,102515.00
2023-03-02T09:33:35.636Z,102520.00
2023-03-02T09:36:09.365Z,102508.50
2023-03-02T09:38:35.860Z,102509.47
2023-03-02T09:41:40.736Z,102517.56
2023-03-02T09:44:30.112Z,102523.53
2023-03-02T09:47:04.834Z,102521.06
2023-03-02T09:49:36.978Z,102528.81
2023-03-02T09:52:29.891Z,102522.25
2023-03-02T09:55:00.577Z,102518.28
2023-03-02T09:57:38.488Z,102520.63
2023-03-02T10:00:19.113Z,102517.44
2023-03-02T10:02:53.740Z,102515.31
2023-03-02T10:05:29.570Z,102515.69
2023-03-02T10:07:58.467Z,102522.38
2023-03-02T10:10:34.277Z,102520.00
2023-03-02T10:13:16.171Z,102524.69
2023-03-02T10:15:57.831Z,102521.53
2023-03-02T10:18:34.323Z,102525.16
2023-03-02T10:21:07.214Z,102524.00
2023-03-02T10:23:49.267Z,102516.75
2023-03-02T10:26:42.102Z,102517.31
2023-03-02T10:29:26.924Z,102515.28
2023-03-02T10:32:13.186Z,102508.38
2023-03-02T10:34:39.805Z,102513.94
2023-03-02T10:37:16.649Z,102518.28
2023-03-02T10:39:43.550Z,102512.16
2023-03-02T10:42:40.206Z,102513.81
2023-03-02T10:45:28.303Z,102509.50
2023-03-02T10:48:04.848Z,102500.13
2023-03-02T10:50:31.536Z,102506.75
2023-03-02T10:53:00.739Z,102505.97
2023-03-02T10:55:29.120Z,102502.38
2023-03-02T10:58:07.757Z,102494.34
2023-03-02T11:00:35.614Z,102499.91
2023-03-02T11:03:20.500Z,102494.16
2023-03-02T11:05:47.773Z,102491.66
2023-03-02T11:08:26.228Z,102489.59
2023-03-02T11:11:00.532Z,102491.16
2023-03-02T11:13:34.343Z,102480.09
2023-03-02T11:16:03.443Z,102485.78
2023-03-02T11:18:40.143Z,102474.34
2023-03-02T11:21:16.126Z,102467.16
2023-03-02T11:24:10.719Z,102475.88
2023-03-02T11:26:56.606Z,102460.56
2023-03-02T11:29:37.575Z,102462.31
2023-03-02T11:32:09.826Z,102462.13
2023-03-02T11:34:46.848Z,102458.63
2023-03-02T11:37:18.691Z,102465.16
2023-03-02T11:39:55.217Z,102456.25
2023-03-02T11:42:28.763Z,102454.25
2023-03-02T11:44:56.301Z,102454.22
2023-03-02T11:47:23.302Z,102444.59
2023-03-02T11:49:55.313Z,102449.47
2023-03-02T11:52:26.214Z,102445.44
2023-03-02T11:55:14.242Z,102442.72
2023-03-02T11:57:49.568Z,102446.25
2023-03-02T12:00:38.733Z,102436.84
2023-03-02T12:03:46.053Z,102425.03
2023-03-02T12:06:18.535Z,102436.25
2023-03-02T12:08:47.754Z,102427.13
2023-03-02T12:11:16.971Z,102417.59
2023-03-02T12:14:01.271Z,102420.28
2023-03-02T12:16:45.933Z,102416.47
2023-03-02T12:19:12.383Z,102417.19
2023-03-02T12:21:41.381Z,102416.63
2023-03-02T12:24:24.911Z,102415.19
2023-03-02T12:27:00.975Z,102402.69
2023-03-02T12:29:39.902Z,102401.50
2023-03-02T12:32:24.800Z,102402.72
2023-03-02T12:35:15.734Z,102399.22
2023-03-02T12:37:53.518Z,102400.63
2023-03-02T12:40:52.211Z,102396.09
2023-03-02T12:43:27.981Z,102394.97
2023-03-02T12:46:19.774Z,102395.16
2023-03-02T12:49:12.042Z,102386.25
2023-03-02T12:51:54.997Z,102396.47
2023-03-02T12:54:25.067Z,102392.56
2023-03-02T12:57:06.777Z,102397.13
2023-03-02T12:59:33.309Z,102391.06
2023-03-02T13:02:21.261Z,102389.63
2023-03-02T13:04:58.043Z,102388.06
2023-03-02T13:07:28.727Z,102384.34
2023-03-02T13:09:58.560Z,102376.13
2023-03-02T13:12:28.073Z,102381.09
2023-03-02T13:14:57.535Z,102370.88
2023-03-02T13:17:31.026Z,102365.84
2023-03-02T13:20:03.743Z,102355.06
2023-03-02T13:22:30.556Z,102355.75
2023-03-02T13:25:08.012Z,102353.13
2023-03-02T13:27:34.740Z,102345.84
2023-03-02T13:30:21.698Z,102341.28
2023-03-02T13:32:48.590Z,102339.72
2023-03-02T13:35:19.928Z,102345.63
2023-03-02T13:37:46.601Z,102353.06
2023-03-02T13:40:21.935Z,102343.28
2023-03-02T13:42:48.702Z,102344.28
2023-03-02T13:45:30.632Z,102346.00
2023-03-02T13:47:59.945Z,102354.47
2023-03-02T13:50:29.947Z,102346.91
2023-03-02T13:52:58.749Z,102352.06
2023-03-02T13:55:25.666Z,102349.50
2023-03-02T13:57:54.042Z,102350.66
2023-03-02T14:00:28.027Z,102341.06
2023-03-02T14:02:54.487Z,102340.75
2023-03-02T14:05:25.441Z,102337.41
2023-03-02T14:07:52.659Z,102336.47
2023-03-02T14:10:20.920Z,102339.56
2023-03-02T14:12:57.079Z,102315.31
2023-03-02T14:15:23.715Z,102331.06
2023-03-02T14:17:50.318Z,102331.59
2023-03-02T14:20:19.768Z,102326.22
2023-03-02T14:22:47.613Z,102330.50
2023-03-02T14:25:14.832Z,102331.53
2023-03-02T14:27:42.903Z,102323.06
2023-03-02T14:30:19.978Z,102330.88
2023-03-02T14:32:47.096Z,102318.47
2023-03-02T14:35:16.610Z,102303.88
2023-03-02T14:37:47.886Z,102309.53
2023-03-02T14:40:17.766Z,102306.94
2023-03-02T14:42:44.340Z,102303.22
2023-03-02T14:45:11.324Z,102307.22
2023-03-02T14:47:37.891Z,102301.09
2023-03-02T14:50:05.366Z,102299.75
2023-03-02T14:52:33.482Z,102292.78
2023-03-02T14:55:05.338Z,102302.19
2023-03-02T14:57:35.689Z,102295.47
2023-03-02T15:00:02.325Z,102294.88
2023-03-02T15:02:28.987Z,102294.63
2023-03-02T15:04:57.284Z,102297.31
2023-03-02T15:07:26.343Z,102296.28
2023-03-02T15:09:52.914Z,102285.56
2023-03-02T15:12:19.498Z,102291.53
2023-03-02T15:14:45.996Z,102283.44
2023-03-02T15:17:12.557Z,102285.03
2023-03-02T15:19:39.065Z,102289.41
2023-03-02T15:22:05.579Z,102285.75
2023-03-02T15:24:33.440Z,102284.56
2023-03-02T15:27:00.631Z,102279.06
2023-03-02T15:29:27.192Z,102281.38
2023-03-02T15:31:53.870Z,102273.53
2023-03-02T15:34:20.467Z,102287.31
2023-03-02T15:36:46.944Z,102279.41
2023-03-02T15:39:14.585Z,102283.47
2023-03-02T15:41:44.300Z,102278.22
2023-03-02T15:44:22.938Z,102273.91
2023-03-02T15:46:53.897Z,102276.38
2023-03-02T15:49:24.726Z,102282.16
2023-03-02T15:51:52.847Z,102285.09
2023-03-02T15:54:19.377Z,102283.28
2023-03-02T15:56:49.454Z,102284.81
2023-03-02T15:59:15.968Z,102287.88
2023-03-02T16:01:42.423Z,102282.31
2023-03-02T16:04:09.201Z,102290.09
2023-03-02T16:06:35.810Z,102295.00
2023-03-02T16:09:03.008Z,102289.97
2023-03-02T16:11:29.505Z,102295.56
2023-03-02T16:13:56.138Z,102302.31
2023-03-02T16:16:22.791Z,102302.72
2023-03-02T16:18:59.347Z,102302.72
2023-03-02T16:21:28.458Z,102308.13
2023-03-02T16:24:02.846Z,102306.66
2023-03-02T16:26:29.393Z,102311.53
2023-03-02T16:28:55.936Z,102312.41
2023-03-02T16:31:26.450Z,102310.22
2023-03-02T16:33:53.386Z,102319.97
2023-03-02T16:36:20.384Z,102323.00
2023-03-02T16:38:46.887Z,102316.28
2023-03-02T16:41:21.861Z,102322.66
2023-03-02T16:43:52.027Z,102327.34
2023-03-02T16:46:20.285Z,102323.63
2023-03-02T16:48:47.816Z,102321.91
2023-03-02T16:51:15.038Z,102329.09
2023-03-02T16:53:41.629Z,102332.91
2023-03-02T16:56:09.390Z,102341.25
2023-03-02T16:58:38.286Z,102339.38
2023-03-02T17:01:06.764Z,102346.72
2023-03-02T17:03:34.470Z,102356.25
2023-03-02T17:06:01.475Z,102353.50
2023-03-02T17:08:28.072Z,102356.16
2023-03-02T17:10:57.396Z,102360.47
2023-03-02T17:13:23.864Z,102363.13
2023-03-02T17:15:50.527Z,102364.56
2023-03-02T17:18:17.348Z,102370.06
2023-03-02T17:20:44.145Z,102367.69
2023-03-02T17:23:12.455Z,102370.13
2023-03-02T17:25:39.662Z,102378.97
2023-03-02T17:28:06.605Z,102378.19
2023-03-02T17:30:33.183Z,102381.41
2023-03-02T17:32:59.662Z,102382.03
2023-03-02T17:35:26.210Z,102383.63
2023-03-02T17:37:52.726Z,102386.94
2023-03-02T17:40:19.454Z,102386.13
2023-03-02T17:42:45.965Z,102395.78
2023-03-02T17:45:23.370Z,102398.38
2023-03-02T17:47:51.102Z,102401.13
2023-03-02T17:50:17.644Z,102406.91
2023-03-02T17:52:46.945Z,102410.03
2023-03-02T17:55:13.836Z,102407.66
2023-03-02T17:57:40.431Z,102418.53
2023-03-02T18:00:10.140Z,102420.78
2023-03-02T18:02:36.682Z,102428.72
2023-03-02T18:05:03.961Z,102432.41
2023-03-02T18:07:30.439Z,102430.44
2023-03-02T18:09:56.926Z,102439.22
2023-03-02T18:12:23.498Z,102445.72
2023-03-02T18:14:50.002Z,102442.94
2023-03-02T18:17:16.776Z,102445.59
2023-03-02T18:19:43.218Z,102437.84
2023-03-02T18:22:10.199Z,102453.06
2023-03-02T18:24:36.665Z,102450.81
2023-03-02T18:27:03.207Z,102459.00
2023-03-02T18:29:29.700Z,102457.00
2023-03-02T18:31:56.210Z,102463.22
2023-03-02T18:34:22.802Z,102463.09
2023-03-02T18:36:50.023Z,102464.91
2023-03-02T18:39:16.567Z,102467.31
2023-03-02T18:41:43.093Z,102464.78
2023-03-02T18:44:10.066Z,102467.59
2023-03-02T18:46:36.637Z,102468.59
2023-03-02T18:49:04.506Z,102473.63
2023-03-02T18:51:31.137Z,102471.09
2023-03-02T18:53:57.678Z,102472.25
2023-03-02T18:56:25.422Z,102479.84
2023-03-02T18:58:52.007Z,102473.38
2023-03-02T19:01:19.028Z,102490.53
2023-03-02T19:03:45.898Z,102476.47
2023-03-02T19:06:14.000Z,102482.09
2023-03-02T19:08:40.580Z,102472.22
2023-03-02T19:11:07.538Z,102478.94
2023-03-02T19:13:34.078Z,102466.84
2023-03-02T19:16:01.888Z,102475.00
2023-03-02T19:18:29.158Z,102479.50
2023-03-02T19:20:57.410Z,102473.31
2023-03-02T19:23:24.131Z,102476.94
2023-03-02T19:25:50.799Z,102484.81
2023-03-02T19:28:17.296Z,102483.97
2023-03-02T19:30:43.760Z,102485.34
2023-03-02T19:33:10.330Z,102483.06
2023-03-02T19:35:37.856Z,102491.22
2023-03-02T19:38:05.902Z,102492.03
2023-03-02T19:40:32.503Z,102488.91
2023-03-02T19:42:58.932Z,102494.00
2023-03-02T19:45:29.108Z,102490.34
2023-03-02T19:47:57.784Z,102490.09
2023-03-02T19:50:26.733Z,102500.19
2023-03-02T19:52:54.757Z,102498.47
2023-03-02T19:55:22.310Z,102497.66
2023-03-02T19:57:56.505Z,102495.94
2023-03-02T20:00:24.143Z,102494.59
2023-03-02T20:02:51.045Z,102495.69
2023-03-02T20:05:17.673Z,102494.97
2023-03-02T20:07:44.302Z,102498.75
2023-03-02T20:10:11.581Z,102493.81
2023-03-02T20:12:38.195Z,102493.91
2023-03-02T20:15:06.303Z,102498.41
2023-03-02T20:17:33.785Z,102500.06
2023-03-02T20:20:03.617Z,102500.06
2023-03-02T20:22:30.171Z,102496.78
2023-03-02T20:24:56.646Z,102504.34
2023-03-02T20:27:23.199Z,102505.47
2023-03-02T20:29:49.658Z,102508.78
2023-03-02T20:32:16.780Z,102509.19
2023-03-02T20:34:43.815Z,102498.50
2023-03-02T20:37:13.551Z,102506.66
2023-03-02T20:39:42.515Z,102506.84
2023-03-02T20:42:10.110Z,102502.03
2023-03-02T20:44:37.835Z,102505.91
2023-03-02T20:47:10.806Z,102495.84
2023-03-02T20:49:37.630Z,102497.66
2023-03-02T20:52:05.656Z,102502.47
2023-03-02T20:54:37.226Z,102499.63
2023-03-02T20:57:05.284Z,102500.13
2023-03-02T20:59:32.374Z,102498.81
2023-03-02T21:01:59.056Z,102508.06
2023-03-02T21:04:25.813Z,102505.75
2023-03-02T21:06:52.658Z,102511.50
2023-03-02T21:09:20.172Z,102514.06
2023-03-02T21:11:46.897Z,102514.00
2023-03-02T21:14:14.189Z,102517.25
2023-03-02T21:16:43.648Z,102509.28
2023-03-02T21:19:16.612Z,102515.38
2023-03-02T21:21:43.299Z,102514.88
2023-03-02T21:24:18.432Z,102522.28
2023-03-02T21:26:46.199Z,102519.34
2023-03-02T21:29:13.900Z,102528.31
2023-03-02T21:31:42.280Z,102523.38
2023-03-02T21:34:08.794Z,102521.31
2023-03-02T21:36:35.724Z,102532.34
2023-03-02T21:39:03.564Z,102521.44
2023-03-02T21:41:30.463Z,102518.31
2023-03-02T21:43:57.714Z,102524.47
2023-03-02T21:46:24.218Z,102502.47
2023-03-02T21:48:51.805Z,102513.25
2023-03-02T21:51:19.346Z,102517.25
2023-03-02T21:53:46.125Z,102518.31
2023-03-02T21:56:24.224Z,102520.84
2023-03-02T21:58:53.794Z,102523.91
2023-03-02T22:01:21.491Z,102522.19
2023-03-02T22:03:48.203Z,102523.44
2023-03-02T22:06:23.836Z,102522.19
2023-03-02T22:08:51.117Z,102516.88
2023-03-02T22:11:23.848Z,102512.53
2023-03-02T22:13:51.616Z,102510.81
2023-03-02T22:16:22.626Z,102514.59
2023-03-02T22:18:54.167Z,102520.75
2023-03-02T22:21:31.582Z,102520.75
2023-03-02T22:24:05.370Z,102523.66
2023-03-02T22:26:33.771Z,102535.50
2023-03-02T22:29:13.666Z,102540.47
2023-03-02T22:31:45.982Z,102547.84
2023-03-02T22:34:20.425Z,102538.66
2023-03-02T22:36:47.127Z,102535.16
2023-03-02T22:39:31.751Z,102538.69
2023-03-02T22:42:19.454Z,102529.94
2023-03-02T22:44:50.441Z,102534.91
2023-03-02T22:47:20.380Z,102523.31
2023-03-02T22:49:47.766Z,102525.34
2023-03-02T22:52:19.865Z,102523.50
2023-03-02T22:54:46.381Z,102524.88
2023-03-02T22:57:35.418Z,102528.50
2023-03-02T23:00:14.162Z,102515.31
2023-03-02T23:02:44.824Z,102522.81
2023-03-02T23:05:30.413Z,102522.56
2023-03-02T23:08:17.992Z,102530.94
2023-03-02T23:10:46.065Z,102537.94
2023-03-02T23:13:15.264Z,102539.28
2023-03-02T23:15:41.865Z,102524.38
2023-03-02T23:18:26.692Z,102529.19
2023-03-02T23:20:53.651Z,102528.50
2023-03-02T23:23:22.457Z,102533.53
2023-03-02T23:25:49.277Z,102532.53
2023-03-02T23:28:15.766Z,102526.00
2023-03-02T23:30:42.279Z,102537.25
2023-03-02T23:33:09.303Z,102529.63
2023-03-02T23:35:35.904Z,102529.88
2023-03-02T23:38:02.459Z,102533.50
2023-03-02T23:40:29.142Z,102532.00
2023-03-02T23:42:56.029Z,102533.22
2023-03-02T23:45:22.551Z,102528.63
2023-03-02T23:47:49.088Z,102528.63
2023-03-02T23:50:15.573Z,102527.41
2023-03-02T23:52:42.140Z,102527.22
2023-03-02T23:55:09.536Z,102532.41
2023-03-02T23:57:36.052Z,102536.63
